sensor_id;sensor_type;location;lat;lon;timestamp;temperature;humidity
31729;DHT22;18309;43.658;1.312;2023-12-20T00:00:36;8.40;99.90
31729;DHT22;18309;43.658;1.312;2023-12-20T00:03:03;8.40;99.90
31729;DHT22;18309;43.658;1.312;2023-12-20T00:05:29;8.40;99.90
31729;DHT22;18309;43.658;1.312;2023-12-20T00:07:54;8.40;99.90
31729;DHT22;18309;43.658;1.312;2023-12-20T00:10:20;8.40;99.90
31729;DHT22;18309;43.658;1.312;2023-12-20T00:12:46;8.40;99.90
31729;DHT22;18309;43.658;1.312;2023-12-20T00:15:11;8.40;99.90
31729;DHT22;18309;43.658;1.312;2023-12-20T00:17:37;8.40;99.90
31729;DHT22;18309;43.658;1.312;2023-12-20T00:20:03;8.40;99.90
31729;DHT22;18309;43.658;1.312;2023-12-20T00:22:28;8.40;99.90
31729;DHT22;18309;43.658;1.312;2023-12-20T00:24:54;8.40;99.90
31729;DHT22;18309;43.658;1.312;2023-12-20T00:27:19;8.50;99.90
31729;DHT22;18309;43.658;1.312;2023-12-20T00:29:45;8.50;99.90
31729;DHT22;18309;43.658;1.312;2023-12-20T00:32:15;8.50;99.90
31729;DHT22;18309;43.658;1.312;2023-12-20T00:34:40;8.50;99.90
31729;DHT22;18309;43.658;1.312;2023-12-20T00:37:06;8.50;99.90
31729;DHT22;18309;43.658;1.312;2023-12-20T00:39:32;8.50;99.90
31729;DHT22;18309;43.658;1.312;2023-12-20T00:41:58;8.50;99.90
31729;DHT22;18309;43.658;1.312;2023-12-20T00:44:24;8.50;99.90
31729;DHT22;18309;43.658;1.312;2023-12-20T00:46:49;8.50;99.90
31729;DHT22;18309;43.658;1.312;2023-12-20T00:49:15;8.50;99.90
31729;DHT22;18309;43.658;1.312;2023-12-20T00:51:41;8.50;99.90
31729;DHT22;18309;43.658;1.312;2023-12-20T00:54:06;8.50;99.90
31729;DHT22;18309;43.658;1.312;2023-12-20T00:56:32;8.60;99.90
31729;DHT22;18309;43.658;1.312;2023-12-20T00:58:57;8.60;99.90
31729;DHT22;18309;43.658;1.312;2023-12-20T01:01:23;8.60;99.90
31729;DHT22;18309;43.658;1.312;2023-12-20T01:03:49;8.60;99.90
31729;DHT22;18309;43.658;1.312;2023-12-20T01:06:16;8.60;99.90
31729;DHT22;18309;43.658;1.312;2023-12-20T01:08:42;8.60;99.90
31729;DHT22;18309;43.658;1.312;2023-12-20T01:11:08;8.60;99.90
31729;DHT22;18309;43.658;1.312;2023-12-20T01:13:33;8.60;99.90
31729;DHT22;18309;43.658;1.312;2023-12-20T01:15:59;8.60;99.90
31729;DHT22;18309;43.658;1.312;2023-12-20T01:18:25;8.70;99.90
31729;DHT22;18309;43.658;1.312;2023-12-20T01:20:50;8.70;99.90
31729;DHT22;18309;43.658;1.312;2023-12-20T01:23:16;8.70;99.90
31729;DHT22;18309;43.658;1.312;2023-12-20T01:25:42;8.70;99.90
31729;DHT22;18309;43.658;1.312;2023-12-20T01:28:08;8.70;99.90
31729;DHT22;18309;43.658;1.312;2023-12-20T01:30:34;8.70;99.90
31729;DHT22;18309;43.658;1.312;2023-12-20T01:33:00;8.70;99.90
31729;DHT22;18309;43.658;1.312;2023-12-20T01:35:26;8.80;99.90
31729;DHT22;18309;43.658;1.312;2023-12-20T01:37:52;8.70;99.90
31729;DHT22;18309;43.658;1.312;2023-12-20T01:40:22;8.80;99.90
31729;DHT22;18309;43.658;1.312;2023-12-20T01:42:58;8.80;99.90
31729;DHT22;18309;43.658;1.312;2023-12-20T01:45:24;8.80;99.90
31729;DHT22;18309;43.658;1.312;2023-12-20T01:47:49;8.80;99.90
31729;DHT22;18309;43.658;1.312;2023-12-20T01:50:15;8.80;99.90
31729;DHT22;18309;43.658;1.312;2023-12-20T01:52:42;8.80;99.90
31729;DHT22;18309;43.658;1.312;2023-12-20T01:55:08;8.80;99.90
31729;DHT22;18309;43.658;1.312;2023-12-20T01:57:39;8.80;99.90
31729;DHT22;18309;43.658;1.312;2023-12-20T02:00:07;8.80;99.90
31729;DHT22;18309;43.658;1.312;2023-12-20T02:02:37;8.80;99.90
31729;DHT22;18309;43.658;1.312;2023-12-20T02:05:05;8.80;99.90
31729;DHT22;18309;43.658;1.312;2023-12-20T02:07:31;8.90;99.90
31729;DHT22;18309;43.658;1.312;2023-12-20T02:09:57;8.80;99.90
31729;DHT22;18309;43.658;1.312;2023-12-20T02:12:23;8.90;99.90
31729;DHT22;18309;43.658;1.312;2023-12-20T02:14:49;8.90;99.90
31729;DHT22;18309;43.658;1.312;2023-12-20T02:17:15;8.90;99.90
31729;DHT22;18309;43.658;1.312;2023-12-20T02:19:42;8.90;99.90
31729;DHT22;18309;43.658;1.312;2023-12-20T02:22:12;8.90;99.90
31729;DHT22;18309;43.658;1.312;2023-12-20T02:24:38;8.90;99.90
31729;DHT22;18309;43.658;1.312;2023-12-20T02:27:06;8.90;99.90
31729;DHT22;18309;43.658;1.312;2023-12-20T02:29:35;8.90;99.90
31729;DHT22;18309;43.658;1.312;2023-12-20T02:32:01;8.90;99.90
31729;DHT22;18309;43.658;1.312;2023-12-20T02:34:28;8.90;99.90
31729;DHT22;18309;43.658;1.312;2023-12-20T02:36:53;8.90;99.90
31729;DHT22;18309;43.658;1.312;2023-12-20T02:39:19;8.90;99.90
31729;DHT22;18309;43.658;1.312;2023-12-20T02:41:45;8.90;99.90
31729;DHT22;18309;43.658;1.312;2023-12-20T02:44:10;8.90;99.90
31729;DHT22;18309;43.658;1.312;2023-12-20T02:46:36;8.90;99.90
31729;DHT22;18309;43.658;1.312;2023-12-20T02:49:02;9.00;99.90
31729;DHT22;18309;43.658;1.312;2023-12-20T02:51:27;9.00;99.90
31729;DHT22;18309;43.658;1.312;2023-12-20T02:53:53;9.00;99.90
31729;DHT22;18309;43.658;1.312;2023-12-20T02:56:19;9.00;99.90
31729;DHT22;18309;43.658;1.312;2023-12-20T02:58:44;9.00;99.90
31729;DHT22;18309;43.658;1.312;2023-12-20T03:01:10;9.00;99.90
31729;DHT22;18309;43.658;1.312;2023-12-20T03:03:35;9.00;99.90
31729;DHT22;18309;43.658;1.312;2023-12-20T03:06:01;9.00;99.90
31729;DHT22;18309;43.658;1.312;2023-12-20T03:08:27;9.00;99.90
31729;DHT22;18309;43.658;1.312;2023-12-20T03:10:52;9.00;99.90
31729;DHT22;18309;43.658;1.312;2023-12-20T03:13:19;9.00;99.90
31729;DHT22;18309;43.658;1.312;2023-12-20T03:15:45;9.00;99.90
31729;DHT22;18309;43.658;1.312;2023-12-20T03:18:11;9.00;99.90
31729;DHT22;18309;43.658;1.312;2023-12-20T03:20:37;9.00;99.90
31729;DHT22;18309;43.658;1.312;2023-12-20T03:23:03;9.00;99.90
31729;DHT22;18309;43.658;1.312;2023-12-20T03:25:29;9.00;99.90
31729;DHT22;18309;43.658;1.312;2023-12-20T03:27:55;9.00;99.90
31729;DHT22;18309;43.658;1.312;2023-12-20T03:30:21;9.00;99.90
31729;DHT22;18309;43.658;1.312;2023-12-20T03:32:47;9.00;99.90
31729;DHT22;18309;43.658;1.312;2023-12-20T03:35:13;9.00;99.90
31729;DHT22;18309;43.658;1.312;2023-12-20T03:37:38;9.00;99.90
31729;DHT22;18309;43.658;1.312;2023-12-20T03:40:05;9.00;99.90
31729;DHT22;18309;43.658;1.312;2023-12-20T03:42:30;9.00;99.90
31729;DHT22;18309;43.658;1.312;2023-12-20T03:44:56;9.00;99.90
31729;DHT22;18309;43.658;1.312;2023-12-20T03:47:22;9.00;99.90
31729;DHT22;18309;43.658;1.312;2023-12-20T03:49:47;9.00;99.90
31729;DHT22;18309;43.658;1.312;2023-12-20T03:52:13;9.00;99.90
31729;DHT22;18309;43.658;1.312;2023-12-20T03:54:39;9.00;99.90
31729;DHT22;18309;43.658;1.312;2023-12-20T03:57:07;9.00;99.90
31729;DHT22;18309;43.658;1.312;2023-12-20T03:59:36;9.00;99.90
31729;DHT22;18309;43.658;1.312;2023-12-20T04:02:02;9.00;99.90
31729;DHT22;18309;43.658;1.312;2023-12-20T04:04:28;9.00;99.90
31729;DHT22;18309;43.658;1.312;2023-12-20T04:06:54;9.00;99.90
31729;DHT22;18309;43.658;1.312;2023-12-20T04:09:19;9.00;99.90
31729;DHT22;18309;43.658;1.312;2023-12-20T04:11:45;9.00;99.90
31729;DHT22;18309;43.658;1.312;2023-12-20T04:14:11;9.00;99.90
31729;DHT22;18309;43.658;1.312;2023-12-20T04:16:36;9.00;99.90
31729;DHT22;18309;43.658;1.312;2023-12-20T04:19:02;9.00;99.90
31729;DHT22;18309;43.658;1.312;2023-12-20T04:21:28;9.00;99.90
31729;DHT22;18309;43.658;1.312;2023-12-20T04:23:53;9.00;99.90
31729;DHT22;18309;43.658;1.312;2023-12-20T04:26:19;9.00;99.90
31729;DHT22;18309;43.658;1.312;2023-12-20T04:28:45;9.00;99.90
31729;DHT22;18309;43.658;1.312;2023-12-20T04:31:10;9.00;99.90
31729;DHT22;18309;43.658;1.312;2023-12-20T04:33:36;9.00;99.90
31729;DHT22;18309;43.658;1.312;2023-12-20T04:36:02;9.00;99.90
31729;DHT22;18309;43.658;1.312;2023-12-20T04:38:27;9.00;99.90
31729;DHT22;18309;43.658;1.312;2023-12-20T04:40:53;9.00;99.90
31729;DHT22;18309;43.658;1.312;2023-12-20T04:43:18;9.00;99.90
31729;DHT22;18309;43.658;1.312;2023-12-20T04:45:44;9.00;99.90
31729;DHT22;18309;43.658;1.312;2023-12-20T04:48:10;9.00;99.90
31729;DHT22;18309;43.658;1.312;2023-12-20T04:50:35;8.90;99.90
31729;DHT22;18309;43.658;1.312;2023-12-20T04:53:01;9.00;99.90
31729;DHT22;18309;43.658;1.312;2023-12-20T04:55:27;9.00;99.90
31729;DHT22;18309;43.658;1.312;2023-12-20T04:57:52;9.00;99.90
31729;DHT22;18309;43.658;1.312;2023-12-20T05:00:18;9.00;99.90
31729;DHT22;18309;43.658;1.312;2023-12-20T05:02:44;9.00;99.90
31729;DHT22;18309;43.658;1.312;2023-12-20T05:05:10;9.00;99.90
31729;DHT22;18309;43.658;1.312;2023-12-20T05:07:35;9.00;99.90
31729;DHT22;18309;43.658;1.312;2023-12-20T05:10:02;9.00;99.90
31729;DHT22;18309;43.658;1.312;2023-12-20T05:12:30;9.00;99.90
31729;DHT22;18309;43.658;1.312;2023-12-20T05:14:55;9.00;99.90
31729;DHT22;18309;43.658;1.312;2023-12-20T05:17:21;9.00;99.90
31729;DHT22;18309;43.658;1.312;2023-12-20T05:19:47;9.00;99.90
31729;DHT22;18309;43.658;1.312;2023-12-20T05:22:12;9.00;99.90
31729;DHT22;18309;43.658;1.312;2023-12-20T05:24:38;9.00;99.90
31729;DHT22;18309;43.658;1.312;2023-12-20T05:27:04;9.00;99.90
31729;DHT22;18309;43.658;1.312;2023-12-20T05:29:30;9.10;99.90
31729;DHT22;18309;43.658;1.312;2023-12-20T05:31:55;9.00;99.90
31729;DHT22;18309;43.658;1.312;2023-12-20T05:34:21;9.00;99.90
31729;DHT22;18309;43.658;1.312;2023-12-20T05:36:46;9.00;99.90
31729;DHT22;18309;43.658;1.312;2023-12-20T05:39:12;9.00;99.90
31729;DHT22;18309;43.658;1.312;2023-12-20T05:41:38;9.00;99.90
31729;DHT22;18309;43.658;1.312;2023-12-20T05:44:03;9.00;99.90
31729;DHT22;18309;43.658;1.312;2023-12-20T05:46:29;9.10;99.90
31729;DHT22;18309;43.658;1.312;2023-12-20T05:48:55;9.10;99.90
31729;DHT22;18309;43.658;1.312;2023-12-20T05:51:21;9.10;99.90
31729;DHT22;18309;43.658;1.312;2023-12-20T05:53:46;9.10;99.90
31729;DHT22;18309;43.658;1.312;2023-12-20T05:56:12;9.10;99.90
31729;DHT22;18309;43.658;1.312;2023-12-20T05:58:39;9.10;99.90
31729;DHT22;18309;43.658;1.312;2023-12-20T06:01:05;9.10;99.90
31729;DHT22;18309;43.658;1.312;2023-12-20T06:03:31;9.10;99.90
31729;DHT22;18309;43.658;1.312;2023-12-20T06:05:57;9.10;99.90
31729;DHT22;18309;43.658;1.312;2023-12-20T06:08:23;9.10;99.90
31729;DHT22;18309;43.658;1.312;2023-12-20T06:10:49;9.10;99.90
31729;DHT22;18309;43.658;1.312;2023-12-20T06:13:14;9.20;99.90
31729;DHT22;18309;43.658;1.312;2023-12-20T06:15:40;9.20;99.90
31729;DHT22;18309;43.658;1.312;2023-12-20T06:18:06;9.20;99.90
31729;DHT22;18309;43.658;1.312;2023-12-20T06:20:32;9.20;99.90
31729;DHT22;18309;43.658;1.312;2023-12-20T06:22:58;9.30;99.90
31729;DHT22;18309;43.658;1.312;2023-12-20T06:25:24;9.30;99.90
31729;DHT22;18309;43.658;1.312;2023-12-20T06:27:50;9.30;99.90
31729;DHT22;18309;43.658;1.312;2023-12-20T06:30:16;9.30;99.90
31729;DHT22;18309;43.658;1.312;2023-12-20T06:32:42;9.30;99.90
31729;DHT22;18309;43.658;1.312;2023-12-20T06:35:09;9.30;99.90
31729;DHT22;18309;43.658;1.312;2023-12-20T06:37:35;9.30;99.90
31729;DHT22;18309;43.658;1.312;2023-12-20T06:40:01;9.30;99.90
31729;DHT22;18309;43.658;1.312;2023-12-20T06:42:26;9.40;99.90
31729;DHT22;18309;43.658;1.312;2023-12-20T06:44:52;9.40;99.90
31729;DHT22;18309;43.658;1.312;2023-12-20T06:47:18;9.40;99.90
31729;DHT22;18309;43.658;1.312;2023-12-20T06:49:44;9.40;99.90
31729;DHT22;18309;43.658;1.312;2023-12-20T06:52:10;9.40;99.90
31729;DHT22;18309;43.658;1.312;2023-12-20T06:54:36;9.40;99.90
31729;DHT22;18309;43.658;1.312;2023-12-20T06:57:01;9.50;99.90
31729;DHT22;18309;43.658;1.312;2023-12-20T06:59:29;9.50;99.90
31729;DHT22;18309;43.658;1.312;2023-12-20T07:01:54;9.50;99.90
31729;DHT22;18309;43.658;1.312;2023-12-20T07:04:20;9.50;99.90
31729;DHT22;18309;43.658;1.312;2023-12-20T07:06:50;9.50;99.90
31729;DHT22;18309;43.658;1.312;2023-12-20T07:09:22;9.50;99.90
31729;DHT22;18309;43.658;1.312;2023-12-20T07:11:47;9.50;99.90
31729;DHT22;18309;43.658;1.312;2023-12-20T07:14:14;9.50;99.90
31729;DHT22;18309;43.658;1.312;2023-12-20T07:16:40;9.60;99.90
31729;DHT22;18309;43.658;1.312;2023-12-20T07:19:06;9.60;99.90
31729;DHT22;18309;43.658;1.312;2023-12-20T07:21:32;9.60;99.90
31729;DHT22;18309;43.658;1.312;2023-12-20T07:23:57;9.50;99.90
31729;DHT22;18309;43.658;1.312;2023-12-20T07:26:23;9.50;99.90
31729;DHT22;18309;43.658;1.312;2023-12-20T07:28:49;9.60;99.90
31729;DHT22;18309;43.658;1.312;2023-12-20T07:31:18;9.60;99.90
31729;DHT22;18309;43.658;1.312;2023-12-20T07:33:44;9.50;99.90
31729;DHT22;18309;43.658;1.312;2023-12-20T07:36:10;9.60;99.90
31729;DHT22;18309;43.658;1.312;2023-12-20T07:38:37;9.60;99.90
31729;DHT22;18309;43.658;1.312;2023-12-20T07:41:03;9.50;99.90
31729;DHT22;18309;43.658;1.312;2023-12-20T07:43:28;9.50;99.90
31729;DHT22;18309;43.658;1.312;2023-12-20T07:45:54;9.50;99.90
31729;DHT22;18309;43.658;1.312;2023-12-20T07:48:19;9.50;99.90
31729;DHT22;18309;43.658;1.312;2023-12-20T07:50:45;9.50;99.90
31729;DHT22;18309;43.658;1.312;2023-12-20T07:53:11;9.50;99.90
31729;DHT22;18309;43.658;1.312;2023-12-20T07:55:36;9.50;99.90
31729;DHT22;18309;43.658;1.312;2023-12-20T07:58:02;9.50;99.90
31729;DHT22;18309;43.658;1.312;2023-12-20T08:00:28;9.50;99.90
31729;DHT22;18309;43.658;1.312;2023-12-20T08:02:53;9.50;99.90
31729;DHT22;18309;43.658;1.312;2023-12-20T08:05:19;9.50;99.90
31729;DHT22;18309;43.658;1.312;2023-12-20T08:07:44;9.50;99.90
31729;DHT22;18309;43.658;1.312;2023-12-20T08:10:10;9.50;99.90
31729;DHT22;18309;43.658;1.312;2023-12-20T08:12:36;9.50;99.90
31729;DHT22;18309;43.658;1.312;2023-12-20T08:15:02;9.50;99.90
31729;DHT22;18309;43.658;1.312;2023-12-20T08:17:29;9.50;99.90
31729;DHT22;18309;43.658;1.312;2023-12-20T08:19:55;9.50;99.90
31729;DHT22;18309;43.658;1.312;2023-12-20T08:22:22;9.50;99.90
31729;DHT22;18309;43.658;1.312;2023-12-20T08:24:48;9.50;99.90
31729;DHT22;18309;43.658;1.312;2023-12-20T08:27:13;9.50;99.90
31729;DHT22;18309;43.658;1.312;2023-12-20T08:29:39;9.50;99.90
31729;DHT22;18309;43.658;1.312;2023-12-20T08:32:05;9.50;99.90
31729;DHT22;18309;43.658;1.312;2023-12-20T08:34:30;9.40;99.90
31729;DHT22;18309;43.658;1.312;2023-12-20T08:36:56;9.40;99.90
31729;DHT22;18309;43.658;1.312;2023-12-20T08:39:22;9.50;99.90
31729;DHT22;18309;43.658;1.312;2023-12-20T08:41:48;9.40;99.90
31729;DHT22;18309;43.658;1.312;2023-12-20T08:44:13;9.50;99.90
31729;DHT22;18309;43.658;1.312;2023-12-20T08:46:39;9.50;99.90
31729;DHT22;18309;43.658;1.312;2023-12-20T08:49:05;9.50;99.90
31729;DHT22;18309;43.658;1.312;2023-12-20T08:51:32;9.50;99.90
31729;DHT22;18309;43.658;1.312;2023-12-20T08:53:59;9.50;99.90
31729;DHT22;18309;43.658;1.312;2023-12-20T08:56:26;9.50;99.90
31729;DHT22;18309;43.658;1.312;2023-12-20T08:58:52;9.50;99.90
31729;DHT22;18309;43.658;1.312;2023-12-20T09:01:17;9.50;99.90
31729;DHT22;18309;43.658;1.312;2023-12-20T09:03:44;9.50;99.90
31729;DHT22;18309;43.658;1.312;2023-12-20T09:06:10;9.60;99.90
31729;DHT22;18309;43.658;1.312;2023-12-20T09:08:36;9.50;99.90
31729;DHT22;18309;43.658;1.312;2023-12-20T09:11:01;9.50;99.90
31729;DHT22;18309;43.658;1.312;2023-12-20T09:13:27;9.50;99.90
31729;DHT22;18309;43.658;1.312;2023-12-20T09:15:55;9.60;99.90
31729;DHT22;18309;43.658;1.312;2023-12-20T09:18:21;9.50;99.90
31729;DHT22;18309;43.658;1.312;2023-12-20T09:20:46;9.50;99.90
31729;DHT22;18309;43.658;1.312;2023-12-20T09:23:12;9.60;99.90
31729;DHT22;18309;43.658;1.312;2023-12-20T09:25:38;9.50;99.90
31729;DHT22;18309;43.658;1.312;2023-12-20T09:28:04;9.60;99.90
31729;DHT22;18309;43.658;1.312;2023-12-20T09:30:29;9.60;99.90
31729;DHT22;18309;43.658;1.312;2023-12-20T09:32:55;9.50;99.90
31729;DHT22;18309;43.658;1.312;2023-12-20T09:35:22;9.60;99.90
31729;DHT22;18309;43.658;1.312;2023-12-20T09:37:50;9.60;99.90
31729;DHT22;18309;43.658;1.312;2023-12-20T09:40:18;9.60;99.90
31729;DHT22;18309;43.658;1.312;2023-12-20T09:43:04;9.60;99.90
31729;DHT22;18309;43.658;1.312;2023-12-20T09:45:34;9.60;99.90
31729;DHT22;18309;43.658;1.312;2023-12-20T09:48:00;9.60;99.90
31729;DHT22;18309;43.658;1.312;2023-12-20T09:50:27;9.60;99.90
31729;DHT22;18309;43.658;1.312;2023-12-20T09:52:57;9.60;99.90
31729;DHT22;18309;43.658;1.312;2023-12-20T09:55:25;9.60;99.90
31729;DHT22;18309;43.658;1.312;2023-12-20T09:57:51;9.60;99.90
31729;DHT22;18309;43.658;1.312;2023-12-20T10:00:17;9.60;99.90
31729;DHT22;18309;43.658;1.312;2023-12-20T10:02:57;9.70;99.90
31729;DHT22;18309;43.658;1.312;2023-12-20T10:05:28;9.70;99.90
31729;DHT22;18309;43.658;1.312;2023-12-20T10:07:55;9.70;99.90
31729;DHT22;18309;43.658;1.312;2023-12-20T10:10:21;9.70;99.90
31729;DHT22;18309;43.658;1.312;2023-12-20T10:13:08;9.70;99.90
31729;DHT22;18309;43.658;1.312;2023-12-20T10:15:34;9.70;99.90
31729;DHT22;18309;43.658;1.312;2023-12-20T10:18:04;9.70;99.90
31729;DHT22;18309;43.658;1.312;2023-12-20T10:20:31;9.80;99.90
31729;DHT22;18309;43.658;1.312;2023-12-20T10:23:00;9.70;99.90
31729;DHT22;18309;43.658;1.312;2023-12-20T10:25:26;9.80;99.90
31729;DHT22;18309;43.658;1.312;2023-12-20T10:28:15;9.80;99.90
31729;DHT22;18309;43.658;1.312;2023-12-20T10:30:44;9.80;99.90
31729;DHT22;18309;43.658;1.312;2023-12-20T10:33:10;9.80;99.90
31729;DHT22;18309;43.658;1.312;2023-12-20T10:35:37;9.80;99.90
31729;DHT22;18309;43.658;1.312;2023-12-20T10:38:05;9.80;99.90
31729;DHT22;18309;43.658;1.312;2023-12-20T10:40:34;9.90;99.90
31729;DHT22;18309;43.658;1.312;2023-12-20T10:43:01;9.90;99.90
31729;DHT22;18309;43.658;1.312;2023-12-20T10:45:28;9.90;99.90
31729;DHT22;18309;43.658;1.312;2023-12-20T10:47:54;10.00;99.90
31729;DHT22;18309;43.658;1.312;2023-12-20T10:50:20;10.00;99.90
31729;DHT22;18309;43.658;1.312;2023-12-20T10:52:47;10.00;99.90
31729;DHT22;18309;43.658;1.312;2023-12-20T10:55:13;10.00;99.90
31729;DHT22;18309;43.658;1.312;2023-12-20T10:57:39;10.00;99.90
31729;DHT22;18309;43.658;1.312;2023-12-20T11:00:08;10.00;99.90
31729;DHT22;18309;43.658;1.312;2023-12-20T11:02:40;10.10;99.90
31729;DHT22;18309;43.658;1.312;2023-12-20T11:05:24;10.00;99.90
31729;DHT22;18309;43.658;1.312;2023-12-20T11:10:51;10.00;99.90
31729;DHT22;18309;43.658;1.312;2023-12-20T11:13:33;10.10;99.90
31729;DHT22;18309;43.658;1.312;2023-12-20T11:16:00;10.00;99.90
31729;DHT22;18309;43.658;1.312;2023-12-20T11:18:29;10.10;99.90
31729;DHT22;18309;43.658;1.312;2023-12-20T11:21:05;10.10;99.90
31729;DHT22;18309;43.658;1.312;2023-12-20T11:23:34;10.10;99.90
31729;DHT22;18309;43.658;1.312;2023-12-20T11:26:01;10.10;99.90
31729;DHT22;18309;43.658;1.312;2023-12-20T11:28:27;10.10;99.90
31729;DHT22;18309;43.658;1.312;2023-12-20T11:30:57;10.10;99.90
31729;DHT22;18309;43.658;1.312;2023-12-20T11:33:45;10.10;99.90
31729;DHT22;18309;43.658;1.312;2023-12-20T11:36:18;10.10;99.90
31729;DHT22;18309;43.658;1.312;2023-12-20T11:38:58;10.10;99.90
31729;DHT22;18309;43.658;1.312;2023-12-20T11:41:26;10.20;99.90
31729;DHT22;18309;43.658;1.312;2023-12-20T11:43:55;10.20;99.90
31729;DHT22;18309;43.658;1.312;2023-12-20T11:46:22;10.30;99.90
31729;DHT22;18309;43.658;1.312;2023-12-20T11:48:48;10.30;99.90
31729;DHT22;18309;43.658;1.312;2023-12-20T11:51:14;10.30;99.90
31729;DHT22;18309;43.658;1.312;2023-12-20T11:53:41;10.40;99.90
31729;DHT22;18309;43.658;1.312;2023-12-20T11:56:10;10.40;99.90
31729;DHT22;18309;43.658;1.312;2023-12-20T11:58:36;10.40;99.90
31729;DHT22;18309;43.658;1.312;2023-12-20T12:01:02;10.40;99.90
31729;DHT22;18309;43.658;1.312;2023-12-20T12:03:29;10.50;99.90
31729;DHT22;18309;43.658;1.312;2023-12-20T12:05:55;10.50;99.90
31729;DHT22;18309;43.658;1.312;2023-12-20T12:08:21;10.60;99.90
31729;DHT22;18309;43.658;1.312;2023-12-20T12:10:47;10.70;99.90
31729;DHT22;18309;43.658;1.312;2023-12-20T12:13:13;10.70;99.90
31729;DHT22;18309;43.658;1.312;2023-12-20T12:15:39;10.70;99.90
31729;DHT22;18309;43.658;1.312;2023-12-20T12:18:07;10.80;99.90
31729;DHT22;18309;43.658;1.312;2023-12-20T12:20:33;10.90;99.90
31729;DHT22;18309;43.658;1.312;2023-12-20T12:23:03;10.90;99.90
31729;DHT22;18309;43.658;1.312;2023-12-20T12:25:30;11.00;99.90
31729;DHT22;18309;43.658;1.312;2023-12-20T12:27:57;11.00;99.90
31729;DHT22;18309;43.658;1.312;2023-12-20T12:30:23;11.00;99.90
31729;DHT22;18309;43.658;1.312;2023-12-20T12:32:53;11.00;99.90
31729;DHT22;18309;43.658;1.312;2023-12-20T12:35:20;10.90;99.90
31729;DHT22;18309;43.658;1.312;2023-12-20T12:37:46;10.90;99.90
31729;DHT22;18309;43.658;1.312;2023-12-20T12:40:16;11.00;99.90
31729;DHT22;18309;43.658;1.312;2023-12-20T12:42:44;11.00;99.90
31729;DHT22;18309;43.658;1.312;2023-12-20T12:45:10;11.00;99.90
31729;DHT22;18309;43.658;1.312;2023-12-20T12:47:40;11.00;99.90
31729;DHT22;18309;43.658;1.312;2023-12-20T12:50:06;11.00;99.90
31729;DHT22;18309;43.658;1.312;2023-12-20T12:52:32;10.90;99.90
31729;DHT22;18309;43.658;1.312;2023-12-20T12:54:57;11.00;99.90
31729;DHT22;18309;43.658;1.312;2023-12-20T12:57:23;11.00;99.90
31729;DHT22;18309;43.658;1.312;2023-12-20T12:59:49;11.00;99.90
31729;DHT22;18309;43.658;1.312;2023-12-20T13:02:16;11.00;99.90
31729;DHT22;18309;43.658;1.312;2023-12-20T13:04:42;11.00;99.90
31729;DHT22;18309;43.658;1.312;2023-12-20T13:07:09;11.00;99.90
31729;DHT22;18309;43.658;1.312;2023-12-20T13:09:38;11.00;99.90
31729;DHT22;18309;43.658;1.312;2023-12-20T13:12:07;10.90;99.90
31729;DHT22;18309;43.658;1.312;2023-12-20T13:14:34;10.90;99.90
31729;DHT22;18309;43.658;1.312;2023-12-20T13:17:01;11.00;99.90
31729;DHT22;18309;43.658;1.312;2023-12-20T13:19:27;11.00;99.90
31729;DHT22;18309;43.658;1.312;2023-12-20T13:21:53;11.10;99.90
31729;DHT22;18309;43.658;1.312;2023-12-20T13:24:19;11.10;99.90
31729;DHT22;18309;43.658;1.312;2023-12-20T13:26:44;11.20;99.90
31729;DHT22;18309;43.658;1.312;2023-12-20T13:29:10;11.30;99.90
31729;DHT22;18309;43.658;1.312;2023-12-20T13:31:36;11.30;99.90
31729;DHT22;18309;43.658;1.312;2023-12-20T13:34:02;11.40;99.90
31729;DHT22;18309;43.658;1.312;2023-12-20T13:36:28;11.40;99.90
31729;DHT22;18309;43.658;1.312;2023-12-20T13:38:54;11.50;99.90
31729;DHT22;18309;43.658;1.312;2023-12-20T13:41:20;11.50;99.90
31729;DHT22;18309;43.658;1.312;2023-12-20T13:43:45;11.50;99.90
31729;DHT22;18309;43.658;1.312;2023-12-20T13:46:11;11.50;99.90
31729;DHT22;18309;43.658;1.312;2023-12-20T13:48:37;11.50;99.90
31729;DHT22;18309;43.658;1.312;2023-12-20T13:51:03;11.50;99.90
31729;DHT22;18309;43.658;1.312;2023-12-20T13:53:29;11.50;99.90
31729;DHT22;18309;43.658;1.312;2023-12-20T13:55:54;11.50;99.90
31729;DHT22;18309;43.658;1.312;2023-12-20T13:58:20;11.50;99.90
31729;DHT22;18309;43.658;1.312;2023-12-20T14:00:46;11.50;99.90
31729;DHT22;18309;43.658;1.312;2023-12-20T14:03:11;11.50;99.90
31729;DHT22;18309;43.658;1.312;2023-12-20T14:05:37;11.50;99.90
31729;DHT22;18309;43.658;1.312;2023-12-20T14:08:03;11.60;99.90
31729;DHT22;18309;43.658;1.312;2023-12-20T14:10:29;11.60;99.90
31729;DHT22;18309;43.658;1.312;2023-12-20T14:12:55;11.60;99.90
31729;DHT22;18309;43.658;1.312;2023-12-20T14:15:21;11.60;99.90
31729;DHT22;18309;43.658;1.312;2023-12-20T14:17:47;11.50;99.90
31729;DHT22;18309;43.658;1.312;2023-12-20T14:20:12;11.50;99.90
31729;DHT22;18309;43.658;1.312;2023-12-20T14:22:38;11.40;99.90
31729;DHT22;18309;43.658;1.312;2023-12-20T14:25:12;11.40;99.90
31729;DHT22;18309;43.658;1.312;2023-12-20T14:27:39;11.40;99.90
31729;DHT22;18309;43.658;1.312;2023-12-20T14:30:06;11.40;99.90
31729;DHT22;18309;43.658;1.312;2023-12-20T14:32:32;11.40;99.90
31729;DHT22;18309;43.658;1.312;2023-12-20T14:34:59;11.30;99.90
31729;DHT22;18309;43.658;1.312;2023-12-20T14:37:25;11.30;99.90
31729;DHT22;18309;43.658;1.312;2023-12-20T14:39:51;11.20;99.90
31729;DHT22;18309;43.658;1.312;2023-12-20T14:42:16;11.20;99.90
31729;DHT22;18309;43.658;1.312;2023-12-20T14:44:42;11.20;99.90
31729;DHT22;18309;43.658;1.312;2023-12-20T14:47:08;11.20;99.90
31729;DHT22;18309;43.658;1.312;2023-12-20T14:49:34;11.20;99.90
31729;DHT22;18309;43.658;1.312;2023-12-20T14:52:00;11.10;99.90
31729;DHT22;18309;43.658;1.312;2023-12-20T14:54:25;11.10;99.90
31729;DHT22;18309;43.658;1.312;2023-12-20T14:56:51;11.10;99.90
31729;DHT22;18309;43.658;1.312;2023-12-20T14:59:17;11.00;99.90
31729;DHT22;18309;43.658;1.312;2023-12-20T15:01:46;11.00;99.90
31729;DHT22;18309;43.658;1.312;2023-12-20T15:04:11;11.00;99.90
31729;DHT22;18309;43.658;1.312;2023-12-20T15:06:38;11.00;99.90
31729;DHT22;18309;43.658;1.312;2023-12-20T15:09:03;11.00;99.90
31729;DHT22;18309;43.658;1.312;2023-12-20T15:11:31;10.90;99.90
31729;DHT22;18309;43.658;1.312;2023-12-20T15:13:57;10.90;99.90
31729;DHT22;18309;43.658;1.312;2023-12-20T15:16:24;10.90;99.90
31729;DHT22;18309;43.658;1.312;2023-12-20T15:18:50;10.80;99.90
31729;DHT22;18309;43.658;1.312;2023-12-20T15:21:16;10.80;99.90
31729;DHT22;18309;43.658;1.312;2023-12-20T15:23:43;10.80;99.90
31729;DHT22;18309;43.658;1.312;2023-12-20T15:26:18;10.80;99.90
31729;DHT22;18309;43.658;1.312;2023-12-20T15:28:44;10.80;99.90
31729;DHT22;18309;43.658;1.312;2023-12-20T15:31:10;10.80;99.90
31729;DHT22;18309;43.658;1.312;2023-12-20T15:33:36;10.70;99.90
31729;DHT22;18309;43.658;1.312;2023-12-20T15:36:01;10.70;99.90
31729;DHT22;18309;43.658;1.312;2023-12-20T15:38:27;10.70;99.90
31729;DHT22;18309;43.658;1.312;2023-12-20T15:40:53;10.80;99.90